Columbus, Ohio
Traffic Map
Current Weather Conditions
Columbus, Ohio
Overcast
Overcast
46°
Feels Like: 40°
Wind Chill: 40° Ceiling: 1100
Heat Index: 46° Visibility: 10mi
Dew Point: 41° Wind: 13mph
Humidity: 83% Direction: 350° (N)
Pressure: 30.24in Gusts: 0mph
Raw Report DataKCMH 221351Z 35011KT 10SM BKN011 OVC027 08/05 A3024 RMK AO2 SLP244 T00780050
Traffic Incident Summary
Active as of:
Severity:
Category:
InformationThere was an issue retrieving the traffic information for this location. Please try a different location or try again shortly.
Advertisements
Track Severe Weather on mobile